createdAt,value
2023-05-10T00:00:22.421Z,77.53
2023-05-10T00:01:22.464Z,76.60
2023-05-10T00:02:22.451Z,77.94
2023-05-10T00:03:22.532Z,77.94
2023-05-10T00:04:22.494Z,76.15
2023-05-10T00:05:22.458Z,77.28
2023-05-10T00:06:22.489Z,76.69
2023-05-10T00:07:22.439Z,75.36
2023-05-10T00:08:22.437Z,78.25
2023-05-10T00:09:22.447Z,76.15
2023-05-10T00:10:22.449Z,76.40
2023-05-10T00:11:23.130Z,75.17
2023-05-10T00:12:22.427Z,78.43
2023-05-10T00:13:22.498Z,77.59
2023-05-10T00:14:22.436Z,76.46
2023-05-10T00:15:22.447Z,76.57
2023-05-10T00:16:22.865Z,77.07
2023-05-10T00:17:22.462Z,79.60
2023-05-10T00:18:22.399Z,76.90
2023-05-10T00:19:22.407Z,79.11
2023-05-10T00:20:22.424Z,78.17
2023-05-10T00:21:22.486Z,77.35
2023-05-10T00:22:22.428Z,77.72
2023-05-10T00:23:22.452Z,78.55
2023-05-10T00:24:22.446Z,78.29
2023-05-10T00:25:22.417Z,75.39
2023-05-10T00:26:22.418Z,77.31
2023-05-10T00:27:22.405Z,78.42
2023-05-10T00:28:22.434Z,80.45
2023-05-10T00:29:22.464Z,78.05
2023-05-10T00:30:22.372Z,78.90
2023-05-10T00:31:22.451Z,78.12
2023-05-10T00:32:22.449Z,80.11
2023-05-10T00:33:22.406Z,79.51
2023-05-10T00:34:22.412Z,80.92
2023-05-10T00:35:22.422Z,80.05
2023-05-10T00:36:22.387Z,78.29
2023-05-10T00:37:22.446Z,76.80
2023-05-10T00:38:22.448Z,76.92
2023-05-10T00:39:22.431Z,78.30
2023-05-10T00:40:22.418Z,77.25
2023-05-10T00:41:22.426Z,77.68
2023-05-10T00:42:22.437Z,80.71
2023-05-10T00:43:22.414Z,79.31
2023-05-10T00:44:22.395Z,80.36
2023-05-10T00:45:22.382Z,79.22
2023-05-10T00:46:22.556Z,77.05
2023-05-10T00:47:22.415Z,76.74
2023-05-10T00:48:22.397Z,79.20
2023-05-10T00:49:22.375Z,81.70
2023-05-10T00:50:22.381Z,80.12
2023-05-10T00:51:22.396Z,81.05
2023-05-10T00:52:22.392Z,80.15
2023-05-10T00:53:22.403Z,78.76
2023-05-10T00:54:22.339Z,78.21
2023-05-10T00:55:22.355Z,80.93
2023-05-10T00:56:22.353Z,81.96
2023-05-10T00:57:22.330Z,81.03
2023-05-10T00:58:22.373Z,81.54
2023-05-10T00:59:22.381Z,84.03
2023-05-10T01:00:22.340Z,84.75
2023-05-10T01:01:22.408Z,82.99
2023-05-10T01:02:22.456Z,80.51
2023-05-10T01:03:22.460Z,83.73
2023-05-10T01:04:22.382Z,82.34
2023-05-10T01:05:22.396Z,82.17
2023-05-10T01:06:22.338Z,81.22
2023-05-10T01:07:22.395Z,82.85
2023-05-10T01:08:22.393Z,84.37
2023-05-10T01:09:22.354Z,83.98
2023-05-10T01:10:22.343Z,81.82
2023-05-10T01:11:22.359Z,83.84
2023-05-10T01:12:22.449Z,81.88
2023-05-10T01:13:22.884Z,80.97
2023-05-10T01:14:22.756Z,83.74
2023-05-10T01:15:22.495Z,81.41
2023-05-10T01:16:22.568Z,82.06
2023-05-10T01:17:22.460Z,82.80
2023-05-10T01:18:22.415Z,84.33
2023-05-10T01:19:22.415Z,79.51
2023-05-10T01:20:22.434Z,83.25
2023-05-10T01:21:22.430Z,80.87
2023-05-10T01:22:22.432Z,86.24
2023-05-10T01:23:22.463Z,80.18
2023-05-10T01:24:22.439Z,83.25
2023-05-10T01:25:22.540Z,84.32
2023-05-10T01:26:22.475Z,84.00
2023-05-10T01:27:22.434Z,84.33
2023-05-10T01:28:22.452Z,83.18
2023-05-10T01:29:22.453Z,80.75
2023-05-10T01:30:22.538Z,84.76
2023-05-10T01:31:22.504Z,85.39
2023-05-10T01:32:22.444Z,85.62
2023-05-10T01:33:22.476Z,85.74
2023-05-10T01:34:22.490Z,85.35
2023-05-10T01:35:22.488Z,87.37
2023-05-10T01:36:22.467Z,83.61
2023-05-10T01:37:22.474Z,85.60
2023-05-10T01:38:22.478Z,84.16
2023-05-10T01:39:22.517Z,84.09
2023-05-10T01:40:22.538Z,86.19
2023-05-10T01:41:22.534Z,82.71
2023-05-10T01:42:22.502Z,86.08
2023-05-10T01:43:22.551Z,87.18
2023-05-10T01:44:22.522Z,85.01
2023-05-10T01:45:22.560Z,84.90
2023-05-10T01:46:22.584Z,85.31
2023-05-10T01:47:22.597Z,83.40
2023-05-10T01:48:22.592Z,83.68
2023-05-10T01:49:22.581Z,83.68
2023-05-10T01:50:22.542Z,85.54
2023-05-10T01:51:22.528Z,84.84
2023-05-10T01:52:22.569Z,84.60
2023-05-10T01:53:22.566Z,84.22
2023-05-10T01:54:22.558Z,83.91
2023-05-10T01:55:22.589Z,84.21
2023-05-10T01:56:22.567Z,83.03
2023-05-10T01:57:22.570Z,86.81
2023-05-10T01:58:22.581Z,84.10
2023-05-10T01:59:22.629Z,86.27
2023-05-10T02:00:22.591Z,84.57
2023-05-10T02:01:22.815Z,85.10
2023-05-10T02:02:22.625Z,85.02
2023-05-10T02:03:22.716Z,86.35
2023-05-10T02:04:22.618Z,84.88
2023-05-10T02:05:22.661Z,83.27
2023-05-10T02:06:22.653Z,82.71
2023-05-10T02:07:22.637Z,83.73
2023-05-10T02:08:22.661Z,81.06
2023-05-10T02:09:22.682Z,82.75
2023-05-10T02:10:22.726Z,86.16
2023-05-10T02:11:22.657Z,81.27
2023-05-10T02:12:22.663Z,83.96
2023-05-10T02:13:22.741Z,85.80
2023-05-10T02:14:22.689Z,83.72
2023-05-10T02:15:22.699Z,87.36
2023-05-10T02:16:22.747Z,87.39
2023-05-10T02:17:22.744Z,85.40
2023-05-10T02:18:22.717Z,88.03
2023-05-10T02:19:22.711Z,86.81
2023-05-10T02:20:22.701Z,85.39
2023-05-10T02:21:22.720Z,86.26
2023-05-10T02:22:22.743Z,87.19
2023-05-10T02:23:22.741Z,85.11
2023-05-10T02:24:22.763Z,84.15
2023-05-10T02:25:22.732Z,87.08
2023-05-10T02:26:22.731Z,85.11
2023-05-10T02:27:22.796Z,83.67
2023-05-10T02:28:22.814Z,87.86
2023-05-10T02:29:22.790Z,87.17
2023-05-10T02:30:22.830Z,86.20
2023-05-10T02:31:22.887Z,88.25
2023-05-10T02:32:22.885Z,86.17
2023-05-10T02:33:22.838Z,85.99
2023-05-10T02:34:22.891Z,82.39
2023-05-10T02:35:22.896Z,85.79
2023-05-10T02:36:22.908Z,85.03
2023-05-10T02:37:22.878Z,87.81
2023-05-10T02:38:22.891Z,87.29
2023-05-10T02:39:22.924Z,83.73
2023-05-10T02:40:22.927Z,87.17
2023-05-10T02:41:22.941Z,89.99
2023-05-10T02:42:22.952Z,89.55
2023-05-10T02:43:22.963Z,86.95
2023-05-10T02:44:22.932Z,88.37
2023-05-10T02:45:22.965Z,88.38
2023-05-10T02:46:23.050Z,86.43
2023-05-10T02:47:22.993Z,87.13
2023-05-10T02:48:23.026Z,86.90
2023-05-10T02:49:23.104Z,89.17
2023-05-10T02:50:23.050Z,89.37
2023-05-10T02:51:23.009Z,87.36
2023-05-10T02:52:23.059Z,85.47
2023-05-10T02:53:23.082Z,87.54
2023-05-10T02:54:23.078Z,89.03
2023-05-10T02:55:23.068Z,86.45
2023-05-10T02:56:23.081Z,87.13
2023-05-10T02:57:23.083Z,89.59
2023-05-10T02:58:23.164Z,87.86
2023-05-10T02:59:23.110Z,88.12
2023-05-10T03:00:23.101Z,89.18
2023-05-10T03:01:23.205Z,87.89
2023-05-10T03:02:23.222Z,86.85
2023-05-10T03:03:23.193Z,88.88
2023-05-10T03:04:23.270Z,88.81
2023-05-10T03:05:23.215Z,87.78
2023-05-10T03:06:23.187Z,91.04
2023-05-10T03:07:23.238Z,88.13
2023-05-10T03:08:23.235Z,88.43
2023-05-10T03:09:23.238Z,88.27
2023-05-10T03:10:23.256Z,91.09
2023-05-10T03:11:23.271Z,87.60
2023-05-10T03:12:23.262Z,87.59
2023-05-10T03:13:23.430Z,90.24
2023-05-10T03:14:23.312Z,88.83
2023-05-10T03:15:23.361Z,87.31
2023-05-10T03:16:23.342Z,89.53
2023-05-10T03:17:23.389Z,89.86
2023-05-10T03:18:23.468Z,86.99
2023-05-10T03:19:23.391Z,86.79
2023-05-10T03:20:23.422Z,87.34
2023-05-10T03:21:23.420Z,88.71
2023-05-10T03:22:23.488Z,87.51
2023-05-10T03:23:23.472Z,86.73
2023-05-10T03:24:23.486Z,90.09
2023-05-10T03:25:23.485Z,88.45
2023-05-10T03:26:23.490Z,89.84
2023-05-10T03:27:23.575Z,89.84
2023-05-10T03:28:23.580Z,86.22
2023-05-10T03:29:23.787Z,86.55
2023-05-10T03:30:23.629Z,87.98
2023-05-10T03:31:23.704Z,88.98
2023-05-10T03:32:23.649Z,89.50
2023-05-10T03:33:23.651Z,89.09
2023-05-10T03:34:23.724Z,90.73
2023-05-10T03:35:23.715Z,88.46
2023-05-10T03:36:23.737Z,87.96
2023-05-10T03:37:23.889Z,87.58
2023-05-10T03:38:24.055Z,91.51
2023-05-10T03:39:23.960Z,89.77
2023-05-10T03:40:23.855Z,88.10
2023-05-10T03:41:23.867Z,88.61
2023-05-10T03:42:23.835Z,88.75
2023-05-10T03:43:23.806Z,88.86
2023-05-10T03:44:23.824Z,90.12
2023-05-10T03:45:23.865Z,87.81
2023-05-10T03:46:23.997Z,89.74
2023-05-10T03:47:23.915Z,86.74
2023-05-10T03:48:23.920Z,89.66
2023-05-10T03:49:23.917Z,92.47
2023-05-10T03:50:23.932Z,90.17
2023-05-10T03:51:23.973Z,87.77
2023-05-10T03:52:23.939Z,87.05
2023-05-10T03:53:23.985Z,92.03
2023-05-10T03:54:24.001Z,91.66
2023-05-10T03:55:24.050Z,90.17
2023-05-10T03:56:24.086Z,91.12
2023-05-10T03:57:24.088Z,87.74
2023-05-10T03:58:24.048Z,86.62
2023-05-10T03:59:24.103Z,87.73
2023-05-10T04:00:24.115Z,89.53
2023-05-10T04:01:24.151Z,90.22
2023-05-10T04:02:24.234Z,90.74
2023-05-10T04:03:24.245Z,88.61
2023-05-10T04:04:24.152Z,90.07
2023-05-10T04:05:24.209Z,90.52
2023-05-10T04:06:24.285Z,90.67
2023-05-10T04:07:24.265Z,91.05
2023-05-10T04:08:24.304Z,91.91
2023-05-10T04:09:24.293Z,92.25
2023-05-10T04:10:24.329Z,89.52
2023-05-10T04:11:24.382Z,90.58
2023-05-10T04:12:24.381Z,89.19
2023-05-10T04:13:24.531Z,91.99
2023-05-10T04:14:24.404Z,89.43
2023-05-10T04:15:24.437Z,87.82
2023-05-10T04:16:24.458Z,87.32
2023-05-10T04:17:24.509Z,92.27
2023-05-10T04:18:24.463Z,92.24
2023-05-10T04:19:24.536Z,91.67
2023-05-10T04:20:24.515Z,92.65
2023-05-10T04:21:24.576Z,90.64
2023-05-10T04:22:24.570Z,91.12
2023-05-10T04:23:24.605Z,88.81
2023-05-10T04:24:24.644Z,86.74
2023-05-10T04:25:24.629Z,90.32
2023-05-10T04:26:24.644Z,88.34
2023-05-10T04:27:24.693Z,88.25
2023-05-10T04:28:24.700Z,88.09
2023-05-10T04:29:24.721Z,86.89
2023-05-10T04:30:24.748Z,88.14
2023-05-10T04:31:24.809Z,84.74
2023-05-10T04:32:24.788Z,83.01
2023-05-10T04:33:24.769Z,85.92
2023-05-10T04:34:24.799Z,87.40
2023-05-10T04:35:24.854Z,85.21
2023-05-10T04:36:24.866Z,86.11
2023-05-10T04:37:24.898Z,84.27
2023-05-10T04:38:24.939Z,86.10
2023-05-10T04:39:24.942Z,85.88
2023-05-10T04:40:25.928Z,85.13
2023-05-10T04:41:24.988Z,84.09
2023-05-10T04:42:24.996Z,86.47
2023-05-10T04:43:25.012Z,87.58
2023-05-10T04:44:25.027Z,86.12
2023-05-10T04:45:25.058Z,84.20
2023-05-10T04:46:25.167Z,87.49
2023-05-10T04:47:25.156Z,86.50
2023-05-10T04:48:25.139Z,87.25
2023-05-10T04:49:25.285Z,85.92
2023-05-10T04:50:25.158Z,86.80
2023-05-10T04:51:25.163Z,85.69
2023-05-10T04:52:25.235Z,85.36
2023-05-10T04:53:25.203Z,86.40
2023-05-10T04:54:25.245Z,86.83
2023-05-10T04:55:25.299Z,87.63
2023-05-10T04:56:25.307Z,86.18
2023-05-10T04:57:25.283Z,86.35
2023-05-10T04:58:25.328Z,80.08
2023-05-10T04:59:25.403Z,71.12
2023-05-10T05:00:25.394Z,64.91
2023-05-10T05:01:25.479Z,58.75
2023-05-10T05:02:25.590Z,55.08
2023-05-10T05:03:25.679Z,52.11
2023-05-10T05:04:25.631Z,47.77
2023-05-10T05:05:25.769Z,44.68
2023-05-10T05:06:25.735Z,42.22
2023-05-10T05:07:25.742Z,39.80
2023-05-10T05:08:25.853Z,40.03
2023-05-10T05:09:25.868Z,32.81
2023-05-10T05:10:25.918Z,36.47
2023-05-10T05:11:25.933Z,33.26
2023-05-10T05:12:25.952Z,31.70
2023-05-10T05:13:26.120Z,30.57
2023-05-10T05:14:26.075Z,25.00
2023-05-10T05:15:26.004Z,29.86
2023-05-10T05:16:26.095Z,25.89
2023-05-10T05:17:26.057Z,25.53
2023-05-10T05:18:26.069Z,28.14
2023-05-10T05:19:26.076Z,25.88
2023-05-10T05:20:26.097Z,29.05
2023-05-10T05:21:26.124Z,29.80
2023-05-10T05:22:26.098Z,31.91
2023-05-10T05:23:26.107Z,25.94
2023-05-10T05:24:26.188Z,23.52
2023-05-10T05:25:26.111Z,26.77
2023-05-10T05:26:26.142Z,27.20
2023-05-10T05:27:26.143Z,25.26
2023-05-10T05:28:26.169Z,32.56
2023-05-10T05:29:26.200Z,29.75
2023-05-10T05:30:26.216Z,33.77
2023-05-10T05:31:26.294Z,33.95
2023-05-10T05:32:26.315Z,35.78
2023-05-10T05:33:26.280Z,36.35
2023-05-10T05:34:26.389Z,36.23
2023-05-10T05:35:26.311Z,36.44
2023-05-10T05:36:26.309Z,30.13
2023-05-10T05:37:26.320Z,27.25
2023-05-10T05:38:26.321Z,29.29
2023-05-10T05:39:26.433Z,33.86
2023-05-10T05:40:26.367Z,30.06
2023-05-10T05:41:26.502Z,31.59
2023-05-10T05:42:26.430Z,25.00
2023-05-10T05:43:26.504Z,27.07
2023-05-10T05:44:26.558Z,29.87
2023-05-10T05:45:26.600Z,27.73
2023-05-10T05:46:26.664Z,34.21
2023-05-10T05:47:26.744Z,48.73
2023-05-10T05:48:26.833Z,50.56
2023-05-10T05:49:26.782Z,56.79
2023-05-10T05:50:26.849Z,57.77
2023-05-10T05:51:26.911Z,60.92
2023-05-10T05:52:26.946Z,62.74
2023-05-10T05:53:26.982Z,62.61
2023-05-10T05:54:27.002Z,67.81
2023-05-10T05:55:27.034Z,69.63
2023-05-10T05:56:26.947Z,76.77
2023-05-10T05:57:26.972Z,79.81
2023-05-10T05:58:27.003Z,85.19
2023-05-10T05:59:27.018Z,88.78
2023-05-10T06:00:27.076Z,88.37
2023-05-10T06:01:27.449Z,93.76
2023-05-10T06:02:27.266Z,95.41
2023-05-10T06:03:27.224Z,104.62
2023-05-10T06:04:27.498Z,106.74
2023-05-10T06:05:27.316Z,111.12
2023-05-10T06:06:27.427Z,113.73
2023-05-10T06:07:27.435Z,117.22
2023-05-10T06:08:27.451Z,121.06
2023-05-10T06:09:27.958Z,123.05
2023-05-10T06:10:27.611Z,128.13
2023-05-10T06:11:27.929Z,129.52
2023-05-10T06:12:27.550Z,134.05
2023-05-10T06:13:27.585Z,138.50
2023-05-10T06:14:27.523Z,144.46
2023-05-10T06:15:27.516Z,144.10
2023-05-10T06:16:27.567Z,147.53
2023-05-10T06:17:27.634Z,152.05
2023-05-10T06:18:27.565Z,153.89
2023-05-10T06:19:27.568Z,152.69
2023-05-10T06:20:27.659Z,159.58
2023-05-10T06:21:27.512Z,162.90
2023-05-10T06:22:27.529Z,166.26
2023-05-10T06:23:27.565Z,167.56
2023-05-10T06:24:27.553Z,166.32
2023-05-10T06:25:27.553Z,171.58
2023-05-10T06:26:27.557Z,175.57
2023-05-10T06:27:27.567Z,178.36
2023-05-10T06:28:27.929Z,180.44
2023-05-10T06:29:27.594Z,180.71
2023-05-10T06:30:27.677Z,184.09
2023-05-10T06:31:27.636Z,188.16
2023-05-10T06:32:27.591Z,193.04
2023-05-10T06:33:27.616Z,194.08
2023-05-10T06:34:27.616Z,200.56
2023-05-10T06:35:27.636Z,202.59
2023-05-10T06:36:27.679Z,203.34
2023-05-10T06:37:27.694Z,198.79
2023-05-10T06:38:27.949Z,197.75
2023-05-10T06:39:27.698Z,172.11
2023-05-10T06:40:27.719Z,158.74
2023-05-10T06:41:27.811Z,162.09
2023-05-10T06:42:27.730Z,166.62
2023-05-10T06:43:27.737Z,167.53
2023-05-10T06:44:27.741Z,160.37
2023-05-10T06:45:27.757Z,153.19
2023-05-10T06:46:27.739Z,152.70
2023-05-10T06:47:28.999Z,154.03
2023-05-10T06:48:27.820Z,153.03
2023-05-10T06:49:28.002Z,155.42
2023-05-10T06:50:27.881Z,155.11
2023-05-10T06:51:27.882Z,156.45
2023-05-10T06:52:27.901Z,156.89
2023-05-10T06:53:28.004Z,158.05
2023-05-10T06:54:28.070Z,156.00
2023-05-10T06:55:28.490Z,153.02
2023-05-10T06:56:27.970Z,150.88
2023-05-10T06:57:31.757Z,149.70
2023-05-10T06:58:27.987Z,149.81
2023-05-10T06:59:28.027Z,149.66
2023-05-10T07:00:28.067Z,149.84
2023-05-10T07:01:27.979Z,147.13
2023-05-10T07:02:28.114Z,146.73
2023-05-10T07:03:27.977Z,147.53
2023-05-10T07:04:27.997Z,147.18
2023-05-10T07:05:27.971Z,146.59
2023-05-10T07:06:33.700Z,144.98
2023-05-10T07:07:28.919Z,145.28
2023-05-10T07:08:27.904Z,145.13
2023-05-10T07:09:27.978Z,142.26
2023-05-10T07:10:27.969Z,142.63
2023-05-10T07:11:27.905Z,140.75
2023-05-10T07:12:28.034Z,148.72
2023-05-10T07:13:27.915Z,145.88
2023-05-10T07:14:27.979Z,151.58
2023-05-10T07:15:28.016Z,148.46
2023-05-10T07:16:27.892Z,149.89
2023-05-10T07:17:27.949Z,150.13
2023-05-10T07:18:27.911Z,152.25
2023-05-10T07:19:27.943Z,151.67
2023-05-10T07:20:27.892Z,156.61
2023-05-10T07:21:27.890Z,156.92
2023-05-10T07:22:27.978Z,158.44
2023-05-10T07:23:27.816Z,161.50
2023-05-10T07:24:27.805Z,167.44
2023-05-10T07:25:27.813Z,169.05
2023-05-10T07:26:27.819Z,169.89
2023-05-10T07:27:27.887Z,173.53
2023-05-10T07:28:27.963Z,177.71
2023-05-10T07:29:27.988Z,179.88
2023-05-10T07:30:28.064Z,180.32
2023-05-10T07:31:28.104Z,181.56
2023-05-10T07:32:28.236Z,167.76
2023-05-10T07:33:28.183Z,156.03
2023-05-10T07:34:28.247Z,145.25
2023-05-10T07:35:28.497Z,135.13
2023-05-10T07:36:28.251Z,132.49
2023-05-10T07:37:30.004Z,146.24
2023-05-10T07:38:28.265Z,136.99
2023-05-10T07:39:28.578Z,130.83
2023-05-10T07:40:28.372Z,129.89
2023-05-10T07:41:28.539Z,132.44
2023-05-10T07:42:28.408Z,141.16
2023-05-10T07:43:28.528Z,140.65
2023-05-10T07:44:28.526Z,141.25
2023-05-10T07:45:28.520Z,140.60
2023-05-10T07:46:28.592Z,136.05
2023-05-10T07:47:28.596Z,138.37
2023-05-10T07:48:28.574Z,130.23
2023-05-10T07:49:28.658Z,126.11
2023-05-10T07:50:28.641Z,129.83
2023-05-10T07:51:28.656Z,128.93
2023-05-10T07:52:28.657Z,128.11
2023-05-10T07:53:28.776Z,125.53
2023-05-10T07:54:28.721Z,126.09
2023-05-10T07:55:28.730Z,125.45
2023-05-10T07:56:28.731Z,120.52
2023-05-10T07:57:28.823Z,121.36
2023-05-10T07:58:28.806Z,124.91
2023-05-10T07:59:28.821Z,129.43
2023-05-10T08:00:28.830Z,130.62
2023-05-10T08:01:28.838Z,135.95
2023-05-10T08:02:28.906Z,131.77
2023-05-10T08:03:29.008Z,133.78
2023-05-10T08:04:28.935Z,133.97
2023-05-10T08:05:28.854Z,132.75
2023-05-10T08:06:28.856Z,136.16
2023-05-10T08:07:28.889Z,133.18
2023-05-10T08:08:28.880Z,131.27
2023-05-10T08:09:28.927Z,133.87
2023-05-10T08:10:28.894Z,136.28
2023-05-10T08:11:28.891Z,139.88
2023-05-10T08:12:29.117Z,139.65
2023-05-10T08:13:29.016Z,140.64
2023-05-10T08:14:28.909Z,142.37
2023-05-10T08:15:28.924Z,145.10
2023-05-10T08:16:28.994Z,147.11
2023-05-10T08:17:29.016Z,148.45
2023-05-10T08:18:29.028Z,146.49
2023-05-10T08:19:28.949Z,153.24
2023-05-10T08:20:29.111Z,157.64
2023-05-10T08:21:29.024Z,159.26
2023-05-10T08:22:29.070Z,162.36
2023-05-10T08:23:29.067Z,163.48
2023-05-10T08:24:29.071Z,167.23
2023-05-10T08:25:29.151Z,166.62
2023-05-10T08:26:29.269Z,157.00
2023-05-10T08:27:29.243Z,132.07
2023-05-10T08:28:29.213Z,133.60
2023-05-10T08:29:32.782Z,135.25
2023-05-10T08:30:30.252Z,132.62
2023-05-10T08:31:29.314Z,128.38
2023-05-10T08:32:29.318Z,121.83
2023-05-10T08:33:29.188Z,116.46
2023-05-10T08:34:29.208Z,110.21
2023-05-10T08:35:29.199Z,111.49
2023-05-10T08:36:29.187Z,109.41
2023-05-10T08:37:29.329Z,116.33
2023-05-10T08:38:29.171Z,125.95
2023-05-10T08:39:30.905Z,130.86
2023-05-10T08:40:29.133Z,130.67
2023-05-10T08:41:29.138Z,131.46
2023-05-10T08:42:29.163Z,134.97
2023-05-10T08:43:29.116Z,133.40
2023-05-10T08:44:29.184Z,134.81
2023-05-10T08:45:29.174Z,143.86
2023-05-10T08:46:29.245Z,142.44
2023-05-10T08:47:29.314Z,143.28
2023-05-10T08:48:29.372Z,148.35
2023-05-10T08:49:29.365Z,152.12
2023-05-10T08:50:29.531Z,157.32
2023-05-10T08:51:29.479Z,157.77
2023-05-10T08:52:29.433Z,159.17
2023-05-10T08:53:29.546Z,161.55
2023-05-10T08:54:29.405Z,162.62
2023-05-10T08:55:29.399Z,164.86
2023-05-10T08:56:29.513Z,167.25
2023-05-10T08:57:29.460Z,174.07
2023-05-10T08:58:29.515Z,178.35
2023-05-10T08:59:29.608Z,179.80
2023-05-10T09:00:29.597Z,186.72
2023-05-10T09:01:29.779Z,188.32
2023-05-10T09:02:29.770Z,192.74
2023-05-10T09:03:29.764Z,193.49
2023-05-10T09:04:29.912Z,198.69
2023-05-10T09:05:29.919Z,200.57
2023-05-10T09:06:29.895Z,207.64
2023-05-10T09:07:30.001Z,205.27
2023-05-10T09:08:30.002Z,210.49
2023-05-10T09:09:30.052Z,211.58
2023-05-10T09:10:30.122Z,216.21
2023-05-10T09:11:30.186Z,219.86
2023-05-10T09:12:30.195Z,223.00
2023-05-10T09:13:30.307Z,224.13
2023-05-10T09:14:30.294Z,229.10
2023-05-10T09:15:30.361Z,232.59
2023-05-10T09:16:30.405Z,232.79
2023-05-10T09:17:30.437Z,235.84
2023-05-10T09:18:30.588Z,231.24
2023-05-10T09:19:30.484Z,236.67
2023-05-10T09:20:30.547Z,236.31
2023-05-10T09:21:31.026Z,217.14
2023-05-10T09:22:30.655Z,219.03
2023-05-10T09:23:30.732Z,205.24
2023-05-10T09:24:30.763Z,202.06
2023-05-10T09:25:30.840Z,197.31
2023-05-10T09:26:31.134Z,200.25
2023-05-10T09:27:30.953Z,201.60
2023-05-10T09:28:31.065Z,208.71
2023-05-10T09:29:31.022Z,208.96
2023-05-10T09:30:31.073Z,212.25
2023-05-10T09:31:31.152Z,208.01
2023-05-10T09:32:31.241Z,214.58
2023-05-10T09:33:31.295Z,212.59
2023-05-10T09:34:32.143Z,175.82
2023-05-10T09:35:31.250Z,162.57
2023-05-10T09:36:31.363Z,146.13
2023-05-10T09:37:31.260Z,144.91
2023-05-10T09:38:31.540Z,147.95
2023-05-10T09:39:31.357Z,149.94
2023-05-10T09:40:31.385Z,155.73
2023-05-10T09:41:31.486Z,161.51
2023-05-10T09:42:31.414Z,168.13
2023-05-10T09:43:31.586Z,166.79
2023-05-10T09:44:31.481Z,170.62
2023-05-10T09:45:31.420Z,177.29
2023-05-10T09:46:31.460Z,179.97
2023-05-10T09:47:31.468Z,180.73
2023-05-10T09:48:31.502Z,181.20
2023-05-10T09:49:31.456Z,183.61
2023-05-10T09:50:31.423Z,184.77
2023-05-10T09:51:31.458Z,186.73
2023-05-10T09:52:32.121Z,189.61
2023-05-10T09:53:31.667Z,185.20
2023-05-10T09:54:31.665Z,185.44
2023-05-10T09:55:31.766Z,192.46
2023-05-10T09:56:31.782Z,190.12
2023-05-10T09:57:34.524Z,192.66
2023-05-10T09:58:31.784Z,193.62
2023-05-10T09:59:31.824Z,192.82
2023-05-10T10:00:31.797Z,196.32
2023-05-10T10:01:31.837Z,197.05
2023-05-10T10:02:32.566Z,198.91
2023-05-10T10:03:31.756Z,201.08
2023-05-10T10:04:31.803Z,201.50
2023-05-10T10:05:31.740Z,208.24
2023-05-10T10:06:31.768Z,208.53
2023-05-10T10:07:31.788Z,209.31
2023-05-10T10:08:32.110Z,211.52
2023-05-10T10:09:31.697Z,217.35
2023-05-10T10:10:31.701Z,216.60
2023-05-10T10:11:31.712Z,221.17
2023-05-10T10:12:31.736Z,221.89
2023-05-10T10:13:31.729Z,224.79
2023-05-10T10:14:31.708Z,225.91
2023-05-10T10:15:32.048Z,228.67
2023-05-10T10:16:31.798Z,228.40
2023-05-10T10:17:31.694Z,233.28
2023-05-10T10:18:32.101Z,237.55
2023-05-10T10:19:32.070Z,238.30
2023-05-10T10:20:31.624Z,239.65
2023-05-10T10:21:31.634Z,240.30
2023-05-10T10:22:32.060Z,243.29
2023-05-10T10:23:31.663Z,245.38
2023-05-10T10:24:31.805Z,247.36
2023-05-10T10:25:31.622Z,245.10
2023-05-10T10:26:32.138Z,247.61
2023-05-10T10:27:31.577Z,246.96
2023-05-10T10:28:31.626Z,247.04
2023-05-10T10:29:31.623Z,244.68
2023-05-10T10:30:31.593Z,243.15
2023-05-10T10:31:31.590Z,225.79
2023-05-10T10:32:31.708Z,207.10
2023-05-10T10:33:31.584Z,200.25
2023-05-10T10:34:31.588Z,215.17
2023-05-10T10:35:31.576Z,228.31
2023-05-10T10:36:31.543Z,232.39
2023-05-10T10:37:31.550Z,226.70
2023-05-10T10:38:31.554Z,222.74
2023-05-10T10:39:31.498Z,229.11
2023-05-10T10:40:34.377Z,227.13
2023-05-10T10:41:31.710Z,232.49
2023-05-10T10:42:31.586Z,231.64
2023-05-10T10:43:31.500Z,234.83
2023-05-10T10:44:33.078Z,235.32
2023-05-10T10:45:31.503Z,237.40
2023-05-10T10:46:31.442Z,235.44
2023-05-10T10:47:31.468Z,237.48
2023-05-10T10:48:31.447Z,241.95
2023-05-10T10:49:31.459Z,241.87
2023-05-10T10:50:31.421Z,244.63
2023-05-10T10:51:31.427Z,248.81
2023-05-10T10:52:31.441Z,249.78
2023-05-10T10:53:31.487Z,249.65
2023-05-10T10:54:31.468Z,248.54
2023-05-10T10:55:31.456Z,250.00
2023-05-10T10:56:31.398Z,250.00
2023-05-10T10:57:31.384Z,248.69
2023-05-10T10:58:31.436Z,247.59
2023-05-10T10:59:31.378Z,248.34
2023-05-10T11:00:31.389Z,247.81
2023-05-10T11:01:31.515Z,249.54
2023-05-10T11:02:31.448Z,248.37
2023-05-10T11:03:31.366Z,247.67
2023-05-10T11:04:31.493Z,249.91
2023-05-10T11:05:31.558Z,247.55
2023-05-10T11:06:31.334Z,249.41
2023-05-10T11:07:31.340Z,247.09
2023-05-10T11:08:31.602Z,248.25
2023-05-10T11:09:31.343Z,249.69
2023-05-10T11:10:31.368Z,246.27
2023-05-10T11:11:31.665Z,249.53
2023-05-10T11:12:31.635Z,247.37
2023-05-10T11:13:31.500Z,249.99
2023-05-10T11:14:31.383Z,249.85
2023-05-10T11:15:31.603Z,249.24
2023-05-10T11:16:31.537Z,246.98
2023-05-10T11:17:31.664Z,249.06
2023-05-10T11:18:31.565Z,244.91
2023-05-10T11:19:31.450Z,246.20
2023-05-10T11:20:31.486Z,249.77
2023-05-10T11:21:31.487Z,245.37
2023-05-10T11:22:31.538Z,232.60
2023-05-10T11:23:31.554Z,222.21
2023-05-10T11:24:31.660Z,200.07
2023-05-10T11:25:31.671Z,170.70
2023-05-10T11:26:31.696Z,148.64
2023-05-10T11:27:31.704Z,138.06
2023-05-10T11:28:31.819Z,126.05
2023-05-10T11:29:31.792Z,117.46
2023-05-10T11:30:31.853Z,107.18
2023-05-10T11:31:31.829Z,95.87
2023-05-10T11:32:31.964Z,94.56
2023-05-10T11:33:31.822Z,81.39
2023-05-10T11:34:31.873Z,63.80
2023-05-10T11:35:31.833Z,53.71
2023-05-10T11:36:31.837Z,38.53
2023-05-10T11:37:31.837Z,31.56
2023-05-10T11:38:31.905Z,31.04
2023-05-10T11:39:31.894Z,35.22
2023-05-10T11:40:31.914Z,34.04
2023-05-10T11:41:31.999Z,30.75
2023-05-10T11:42:31.972Z,32.43
2023-05-10T11:43:32.028Z,26.62
2023-05-10T11:44:32.035Z,25.00
2023-05-10T11:45:32.100Z,26.91
2023-05-10T11:46:32.268Z,25.93
2023-05-10T11:47:32.154Z,33.09
2023-05-10T11:48:32.238Z,26.10
2023-05-10T11:49:33.119Z,25.95
2023-05-10T11:50:32.282Z,27.45
2023-05-10T11:51:32.301Z,27.47
2023-05-10T11:52:32.415Z,28.00
2023-05-10T11:53:32.400Z,25.00
2023-05-10T11:54:32.554Z,25.00
2023-05-10T11:55:32.524Z,31.75
2023-05-10T11:56:32.672Z,26.32
2023-05-10T11:57:32.640Z,29.34
2023-05-10T11:58:32.762Z,25.94
2023-05-10T11:59:32.846Z,25.00
2023-05-10T12:00:32.841Z,25.98
2023-05-10T12:01:33.051Z,26.13
2023-05-10T12:02:33.023Z,26.53
2023-05-10T12:03:33.363Z,45.72
2023-05-10T12:04:33.105Z,59.82
2023-05-10T12:05:33.087Z,66.27
2023-05-10T12:06:33.337Z,72.80
2023-05-10T12:07:33.210Z,80.84
2023-05-10T12:08:33.236Z,81.18
2023-05-10T12:09:43.080Z,86.76
2023-05-10T12:10:34.319Z,87.22
2023-05-10T12:11:34.123Z,89.29
2023-05-10T12:12:33.241Z,94.68
2023-05-10T12:13:33.270Z,99.35
2023-05-10T12:14:33.241Z,110.17
2023-05-10T12:15:33.350Z,117.49
2023-05-10T12:16:33.338Z,117.49
2023-05-10T12:17:33.265Z,122.61
2023-05-10T12:18:33.208Z,130.02
2023-05-10T12:19:33.240Z,137.67
2023-05-10T12:20:33.201Z,146.95
2023-05-10T12:21:33.224Z,150.96
2023-05-10T12:22:33.188Z,157.97
2023-05-10T12:23:33.185Z,162.21
2023-05-10T12:24:33.195Z,170.54
2023-05-10T12:25:33.245Z,174.95
2023-05-10T12:26:33.371Z,178.60
2023-05-10T12:27:33.386Z,184.77
2023-05-10T12:28:33.468Z,183.75
2023-05-10T12:29:33.389Z,189.43
2023-05-10T12:30:33.465Z,195.33
2023-05-10T12:31:33.557Z,200.59
2023-05-10T12:32:33.619Z,201.80
2023-05-10T12:33:33.779Z,200.05
2023-05-10T12:34:33.834Z,202.06
2023-05-10T12:35:33.734Z,191.43
2023-05-10T12:36:33.781Z,194.83
2023-05-10T12:37:33.799Z,197.57
2023-05-10T12:38:33.868Z,194.64
2023-05-10T12:39:33.905Z,199.14
2023-05-10T12:40:33.984Z,206.04
2023-05-10T12:41:34.001Z,208.55